FCY weather

Forrest City Municipal Airport
Forrest City, Arkansas, United States

Public forecast

Using degrees Fahrenheit for public forecast. Weather courtesy of forecast.io.

METAR (pilot weather report)

Closest report is Tunica Municipal Airport, 26.3 nm (48.7 km) SE. Retrieved 2019/08/24 17:35 UTC (0 seconds ago):

KUTA 241735Z AUTO 34003KT 10SM -RA 27/24 A3002 RMK AO2 P0003 TSNO

TAF (pilot weather forecast)

Closest forecast is Memphis International Airport, 39.7 nm (73.6 km) E. Retrieved 2019/08/24 12:22 UTC (5 hours ago):

TAF KMEM 241120Z 2412/2518 08008KT P6SM OVC007 FM241330 09008KT P6SM BKN015 FM241600 08006KT P6SM SCT015 BKN025 FM241900 06007KT P6SM VCTS BKN035CB BKN080 FM250300 07006KT P6SM VCSH BKN040 OVC080 FM251000 12004KT P6SM BKN009 OVC040 FM251400 16005KT P6SM SCT015 BKN050